createdAt,value
2023-04-27T00:00:38.396Z,65.23
2023-04-27T00:03:18.094Z,64.87
2023-04-27T00:05:46.741Z,63.94
2023-04-27T00:08:15.307Z,63.67
2023-04-27T00:10:43.477Z,62.75
2023-04-27T00:13:11.589Z,61.79
2023-04-27T00:15:39.824Z,61.95
2023-04-27T00:18:08.049Z,62.04
2023-04-27T00:20:36.266Z,62.18
2023-04-27T00:23:04.348Z,62.90
2023-04-27T00:25:32.716Z,63.71
2023-04-27T00:28:00.912Z,64.29
2023-04-27T00:30:29.176Z,64.70
2023-04-27T00:32:57.493Z,64.54
2023-04-27T00:35:25.719Z,64.61
2023-04-27T00:37:55.185Z,64.56
2023-04-27T00:40:23.287Z,64.58
2023-04-27T00:42:51.459Z,64.91
2023-04-27T00:45:19.634Z,65.10
2023-04-27T00:47:47.850Z,65.34
2023-04-27T00:50:17.208Z,65.40
2023-04-27T00:52:45.793Z,65.38
2023-04-27T00:55:13.955Z,65.59
2023-04-27T00:57:42.131Z,65.59
2023-04-27T01:00:13.681Z,65.72
2023-04-27T01:02:42.384Z,66.07
2023-04-27T01:05:10.948Z,66.03
2023-04-27T01:07:40.968Z,66.63
2023-04-27T01:10:09.558Z,66.53
2023-04-27T01:12:37.722Z,66.48
2023-04-27T01:15:07.405Z,66.68
2023-04-27T01:17:36.084Z,66.77
2023-04-27T01:20:09.113Z,66.84
2023-04-27T01:22:38.292Z,67.10
2023-04-27T01:25:08.189Z,67.52
2023-04-27T01:27:36.378Z,67.61
2023-04-27T01:30:06.577Z,67.66
2023-04-27T01:32:38.061Z,67.90
2023-04-27T01:35:07.428Z,67.77
2023-04-27T01:37:36.038Z,67.87
2023-04-27T01:40:06.806Z,67.94
2023-04-27T01:42:35.140Z,68.05
2023-04-27T01:45:04.340Z,68.03
2023-04-27T01:47:33.269Z,67.97
2023-04-27T01:50:01.807Z,67.82
2023-04-27T01:52:30.289Z,67.79
2023-04-27T01:54:58.460Z,67.75
2023-04-27T01:57:27.245Z,67.62
2023-04-27T01:59:57.175Z,67.61
2023-04-27T02:02:25.603Z,67.62
2023-04-27T02:04:54.298Z,67.68
2023-04-27T02:07:22.704Z,67.48
2023-04-27T02:09:51.085Z,67.39
2023-04-27T02:12:19.254Z,67.48
2023-04-27T02:14:47.423Z,67.51
2023-04-27T02:17:15.798Z,67.38
2023-04-27T02:19:43.974Z,67.38
2023-04-27T02:22:12.552Z,67.42
2023-04-27T02:24:40.831Z,67.49
2023-04-27T02:27:09.105Z,67.48
2023-04-27T02:29:39.621Z,67.59
2023-04-27T02:32:08.318Z,67.78
2023-04-27T02:34:36.688Z,68.00
2023-04-27T02:37:05.203Z,68.42
2023-04-27T02:39:33.344Z,68.49
2023-04-27T02:42:03.161Z,68.50
2023-04-27T02:44:31.339Z,68.26
2023-04-27T02:46:59.580Z,68.21
2023-04-27T02:49:27.878Z,68.39
2023-04-27T02:51:57.071Z,68.37
2023-04-27T02:54:25.757Z,68.27
2023-04-27T02:56:53.921Z,68.30
2023-04-27T02:59:22.094Z,68.40
2023-04-27T03:01:50.265Z,68.51
2023-04-27T03:04:18.825Z,68.55
2023-04-27T03:06:47.327Z,68.32
2023-04-27T03:09:17.294Z,68.21
2023-04-27T03:11:45.616Z,68.20
2023-04-27T03:14:14.012Z,68.29
2023-04-27T03:16:42.194Z,68.12
2023-04-27T03:19:10.989Z,68.04
2023-04-27T03:21:39.633Z,68.14
2023-04-27T03:24:07.810Z,68.29
2023-04-27T03:26:36.188Z,68.39
2023-04-27T03:29:05.490Z,68.37
2023-04-27T03:31:33.698Z,68.47
2023-04-27T03:34:01.833Z,68.55
2023-04-27T03:36:30.108Z,68.59
2023-04-27T03:38:58.173Z,68.64
2023-04-27T03:41:26.660Z,68.67
2023-04-27T03:43:54.826Z,68.68
2023-04-27T03:46:23.020Z,68.63
2023-04-27T03:48:51.173Z,68.74
2023-04-27T03:51:19.456Z,68.67
2023-04-27T03:53:48.130Z,68.69
2023-04-27T03:56:16.509Z,68.88
2023-04-27T03:58:44.690Z,68.66
2023-04-27T04:01:22.096Z,68.79
2023-04-27T04:03:52.003Z,68.75
2023-04-27T04:06:20.931Z,68.86
2023-04-27T04:08:49.142Z,68.91
2023-04-27T04:11:17.824Z,68.85
2023-04-27T04:13:46.309Z,68.92
2023-04-27T04:16:14.712Z,68.42
2023-04-27T04:18:43.165Z,68.28
2023-04-27T04:21:12.154Z,68.23
2023-04-27T04:23:42.890Z,68.18
2023-04-27T04:26:11.574Z,68.34
2023-04-27T04:28:39.951Z,68.61
2023-04-27T04:31:09.963Z,68.27
2023-04-27T04:33:38.167Z,68.17
2023-04-27T04:36:07.055Z,68.13
2023-04-27T04:38:35.714Z,68.12
2023-04-27T04:41:04.102Z,68.28
2023-04-27T04:43:34.560Z,68.26
2023-04-27T04:46:06.609Z,68.20
2023-04-27T04:48:35.774Z,67.88
2023-04-27T04:51:07.354Z,67.89
2023-04-27T04:53:35.905Z,67.91
2023-04-27T04:56:11.636Z,67.90
2023-04-27T04:58:40.357Z,67.72
2023-04-27T05:01:08.685Z,67.53
2023-04-27T05:03:37.131Z,67.21
2023-04-27T05:06:06.082Z,67.00
2023-04-27T05:08:34.365Z,66.43
2023-04-27T05:11:02.538Z,66.60
2023-04-27T05:13:31.227Z,66.65
2023-04-27T05:15:59.418Z,66.37
2023-04-27T05:18:27.661Z,66.57
2023-04-27T05:20:56.356Z,66.27
2023-04-27T05:23:24.516Z,66.02
2023-04-27T05:25:53.000Z,65.80
2023-04-27T05:28:21.382Z,65.84
2023-04-27T05:30:49.548Z,65.65
2023-04-27T05:33:17.617Z,65.31
2023-04-27T05:35:45.796Z,65.13
2023-04-27T05:38:17.648Z,64.80
2023-04-27T05:40:45.824Z,63.62
2023-04-27T05:43:13.997Z,63.48
2023-04-27T05:45:42.347Z,62.84
2023-04-27T05:48:10.549Z,62.61
2023-04-27T05:50:38.616Z,62.29
2023-04-27T05:53:07.298Z,61.45
2023-04-27T05:55:35.891Z,60.87
2023-04-27T05:58:07.707Z,58.61
2023-04-27T06:00:37.027Z,58.10
2023-04-27T06:03:05.279Z,57.95
2023-04-27T06:05:34.688Z,57.59
2023-04-27T06:08:03.398Z,58.18
2023-04-27T06:10:31.587Z,58.50
2023-04-27T06:13:00.262Z,58.98
2023-04-27T06:15:28.448Z,59.48
2023-04-27T06:17:56.993Z,59.61
2023-04-27T06:20:25.184Z,59.77
2023-04-27T06:22:53.358Z,59.60
2023-04-27T06:25:21.849Z,59.87
2023-04-27T06:27:51.236Z,60.27
2023-04-27T06:30:19.410Z,60.74
2023-04-27T06:32:47.608Z,60.56
2023-04-27T06:35:16.478Z,60.27
2023-04-27T06:37:45.233Z,60.40
2023-04-27T06:40:13.602Z,60.55
2023-04-27T06:42:41.812Z,60.87
2023-04-27T06:45:10.854Z,61.06
2023-04-27T06:47:39.121Z,60.67
2023-04-27T06:50:07.854Z,60.41
2023-04-27T06:52:36.027Z,60.20
2023-04-27T06:55:04.620Z,59.95
2023-04-27T06:57:32.684Z,59.97
2023-04-27T07:00:01.092Z,59.96
2023-04-27T07:02:29.351Z,59.29
2023-04-27T07:04:57.872Z,58.97
2023-04-27T07:07:25.982Z,59.01
2023-04-27T07:09:54.154Z,58.81
2023-04-27T07:12:22.328Z,58.11
2023-04-27T07:14:51.221Z,57.56
2023-04-27T07:17:19.402Z,57.85
2023-04-27T07:19:47.662Z,58.29
2023-04-27T07:22:16.355Z,57.68
2023-04-27T07:24:44.827Z,57.42
2023-04-27T07:27:13.819Z,57.79
2023-04-27T07:29:42.613Z,57.04
2023-04-27T07:32:10.845Z,57.47
2023-04-27T07:34:51.971Z,57.09
2023-04-27T07:37:22.508Z,57.35
2023-04-27T07:39:54.658Z,56.52
2023-04-27T07:42:22.717Z,56.02
2023-04-27T07:44:52.218Z,54.98
2023-04-27T07:47:20.491Z,55.70
2023-04-27T07:49:48.689Z,56.28
2023-04-27T07:52:16.837Z,56.61
2023-04-27T07:54:44.912Z,56.69
2023-04-27T07:57:12.975Z,56.48
2023-04-27T07:59:41.147Z,56.42
2023-04-27T08:02:19.241Z,56.46
2023-04-27T08:04:50.301Z,56.46
2023-04-27T08:07:19.632Z,56.21
2023-04-27T08:09:52.381Z,54.79
2023-04-27T08:12:20.545Z,55.03
2023-04-27T08:14:48.715Z,55.41
2023-04-27T08:17:18.558Z,55.72
2023-04-27T08:19:46.716Z,56.27
2023-04-27T08:22:15.079Z,56.01
2023-04-27T08:24:43.249Z,55.46
2023-04-27T08:27:11.467Z,55.56
2023-04-27T08:29:39.599Z,55.55
2023-04-27T08:32:08.478Z,55.76
2023-04-27T08:34:36.623Z,55.96
2023-04-27T08:37:04.939Z,55.24
2023-04-27T08:39:33.207Z,55.21
2023-04-27T08:42:01.391Z,53.96
2023-04-27T08:44:29.863Z,54.56
2023-04-27T08:46:58.036Z,54.59
2023-04-27T08:49:26.419Z,54.73
2023-04-27T08:51:54.581Z,54.68
2023-04-27T08:54:22.752Z,52.95
2023-04-27T08:56:50.966Z,53.07
2023-04-27T08:59:19.195Z,52.93
2023-04-27T09:01:49.291Z,52.66
2023-04-27T09:04:18.763Z,52.04
2023-04-27T09:06:47.099Z,51.44
2023-04-27T09:09:25.541Z,50.96
2023-04-27T09:11:53.793Z,50.15
2023-04-27T09:14:24.018Z,50.64
2023-04-27T09:16:58.091Z,50.94
2023-04-27T09:19:28.738Z,50.48
2023-04-27T09:22:08.073Z,51.05
2023-04-27T09:24:36.455Z,51.25
2023-04-27T09:27:05.359Z,51.02
2023-04-27T09:29:37.837Z,51.10
2023-04-27T09:32:20.936Z,51.45
2023-04-27T09:34:49.321Z,50.84
2023-04-27T09:37:17.591Z,49.98
2023-04-27T09:39:46.278Z,48.78
2023-04-27T09:42:16.088Z,49.39
2023-04-27T09:44:44.265Z,49.94
2023-04-27T09:47:13.877Z,50.09
2023-04-27T09:49:42.138Z,49.09
2023-04-27T09:52:10.630Z,48.77
2023-04-27T09:54:39.201Z,49.48
2023-04-27T09:57:21.813Z,48.79
2023-04-27T10:00:20.711Z,48.51
2023-04-27T10:03:04.410Z,49.04
2023-04-27T10:05:43.366Z,48.62
2023-04-27T10:08:11.842Z,47.45
2023-04-27T10:10:48.315Z,46.62
2023-04-27T10:13:24.690Z,46.47
2023-04-27T10:15:53.880Z,44.66
2023-04-27T10:18:27.784Z,44.60
2023-04-27T10:20:56.154Z,43.65
2023-04-27T10:23:25.773Z,43.97
2023-04-27T10:25:54.869Z,44.69
2023-04-27T10:28:22.930Z,45.09
2023-04-27T10:30:51.226Z,44.86
2023-04-27T10:33:22.018Z,45.12
2023-04-27T10:36:00.626Z,46.03
2023-04-27T10:38:32.923Z,46.53
2023-04-27T10:41:07.153Z,47.30
2023-04-27T10:43:35.834Z,48.74
2023-04-27T10:46:22.138Z,49.20
2023-04-27T10:48:50.391Z,49.71
2023-04-27T10:51:18.581Z,50.83
2023-04-27T10:53:52.676Z,51.64
2023-04-27T10:56:20.954Z,53.04
2023-04-27T10:58:49.732Z,53.49
2023-04-27T11:01:27.867Z,53.41
2023-04-27T11:03:57.988Z,53.43
2023-04-27T11:06:28.614Z,52.93
2023-04-27T11:08:57.372Z,52.63
2023-04-27T11:11:26.527Z,51.68
2023-04-27T11:13:56.000Z,50.69
2023-04-27T11:16:24.642Z,49.20
2023-04-27T11:18:52.807Z,49.19
2023-04-27T11:21:22.516Z,49.00
2023-04-27T11:23:50.606Z,48.82
2023-04-27T11:26:21.785Z,46.81
2023-04-27T11:28:59.965Z,45.16
2023-04-27T11:31:38.401Z,43.25
2023-04-27T11:34:08.162Z,43.59
2023-04-27T11:36:36.756Z,42.86
2023-04-27T11:39:06.776Z,42.56
2023-04-27T11:41:39.320Z,42.16
2023-04-27T11:44:09.029Z,42.67
2023-04-27T11:46:38.189Z,42.00
2023-04-27T11:49:10.838Z,40.55
2023-04-27T11:51:40.329Z,40.89
2023-04-27T11:54:08.528Z,39.99
2023-04-27T11:56:41.798Z,40.82
2023-04-27T11:59:27.894Z,41.53
2023-04-27T12:01:56.187Z,41.29
2023-04-27T12:04:24.336Z,41.45
2023-04-27T12:06:52.814Z,40.46
2023-04-27T12:09:21.091Z,39.95
2023-04-27T12:11:49.263Z,39.30
2023-04-27T12:14:19.586Z,38.90
2023-04-27T12:16:47.678Z,39.00
2023-04-27T12:19:15.828Z,38.94
2023-04-27T12:21:43.898Z,38.53
2023-04-27T12:24:12.599Z,38.11
2023-04-27T12:26:41.166Z,39.83
2023-04-27T12:29:09.426Z,41.07
2023-04-27T12:31:37.817Z,42.06
2023-04-27T12:34:06.216Z,42.82
2023-04-27T12:36:34.363Z,42.88
2023-04-27T12:39:17.175Z,43.13
2023-04-27T12:41:46.479Z,41.93
2023-04-27T12:44:15.447Z,40.83
2023-04-27T12:46:44.865Z,40.69
2023-04-27T12:49:13.049Z,40.22
2023-04-27T12:51:41.940Z,40.84
2023-04-27T12:54:11.377Z,40.57
2023-04-27T12:56:39.917Z,40.08
2023-04-27T12:59:08.868Z,38.35
2023-04-27T13:01:37.557Z,37.21
2023-04-27T13:04:07.428Z,36.95
2023-04-27T13:06:35.779Z,37.38
2023-04-27T13:09:04.165Z,38.13
2023-04-27T13:11:32.526Z,38.30
2023-04-27T13:14:02.163Z,37.06
2023-04-27T13:16:30.370Z,36.68
2023-04-27T13:18:58.585Z,36.09
2023-04-27T13:21:27.266Z,34.01
2023-04-27T13:23:59.543Z,35.00
2023-04-27T13:26:28.320Z,35.14
2023-04-27T13:28:57.422Z,34.24
2023-04-27T13:31:25.692Z,35.01
2023-04-27T13:33:53.960Z,35.55
2023-04-27T13:36:22.574Z,37.28
2023-04-27T13:38:51.131Z,39.37
2023-04-27T13:41:19.405Z,40.10
2023-04-27T13:43:47.485Z,41.50
2023-04-27T13:46:15.673Z,42.18
2023-04-27T13:48:43.816Z,42.11
2023-04-27T13:51:11.985Z,42.78
2023-04-27T13:53:40.379Z,42.77
2023-04-27T13:56:08.671Z,42.80
2023-04-27T13:58:37.326Z,43.20
2023-04-27T14:01:05.644Z,43.41
2023-04-27T14:03:34.330Z,43.49
2023-04-27T14:06:02.770Z,43.65
2023-04-27T14:08:31.854Z,43.74
2023-04-27T14:11:00.140Z,42.88
2023-04-27T14:13:28.202Z,42.49
2023-04-27T14:15:56.375Z,42.44
2023-04-27T14:18:31.918Z,42.00
2023-04-27T14:21:01.216Z,42.08
2023-04-27T14:23:29.800Z,41.09
2023-04-27T14:25:58.078Z,40.78
2023-04-27T14:28:26.687Z,39.96
2023-04-27T14:30:54.729Z,39.48
2023-04-27T14:33:22.907Z,39.15
2023-04-27T14:35:51.175Z,38.32
2023-04-27T14:38:19.248Z,37.40
2023-04-27T14:40:47.826Z,37.08
2023-04-27T14:43:17.229Z,37.41
2023-04-27T14:45:52.908Z,37.66
2023-04-27T14:48:22.379Z,38.04
2023-04-27T14:50:50.761Z,38.18
2023-04-27T14:53:18.939Z,38.51
2023-04-27T14:55:47.105Z,38.98
2023-04-27T14:58:15.782Z,39.15
2023-04-27T15:00:43.964Z,39.41
2023-04-27T15:03:12.433Z,39.78
2023-04-27T15:05:40.816Z,39.63
2023-04-27T15:08:08.988Z,39.86
2023-04-27T15:10:37.160Z,40.25
2023-04-27T15:13:05.342Z,40.39
2023-04-27T15:15:33.401Z,40.60
2023-04-27T15:18:01.669Z,40.65
2023-04-27T15:20:29.949Z,40.60
2023-04-27T15:22:58.229Z,40.94
2023-04-27T15:25:26.395Z,40.99
2023-04-27T15:27:54.672Z,41.47
2023-04-27T15:30:22.952Z,41.47
2023-04-27T15:32:51.059Z,40.53
2023-04-27T15:35:19.320Z,40.42
2023-04-27T15:37:48.071Z,39.83
2023-04-27T15:40:16.558Z,38.66
2023-04-27T15:42:44.729Z,37.92
2023-04-27T15:45:12.908Z,37.60
2023-04-27T15:47:41.109Z,37.70
2023-04-27T15:50:09.586Z,37.15
2023-04-27T15:52:37.722Z,37.11
2023-04-27T15:55:06.201Z,37.21
2023-04-27T15:57:34.795Z,36.62
2023-04-27T16:00:07.258Z,35.51
2023-04-27T16:02:39.747Z,35.88
2023-04-27T16:05:08.925Z,36.62
2023-04-27T16:07:37.616Z,36.07
2023-04-27T16:10:07.015Z,35.83
2023-04-27T16:12:36.224Z,35.73
2023-04-27T16:15:04.991Z,35.85
2023-04-27T16:17:37.371Z,36.30
2023-04-27T16:20:09.705Z,36.75
2023-04-27T16:22:38.215Z,36.85
2023-04-27T16:25:10.825Z,37.35
2023-04-27T16:27:39.681Z,37.92
2023-04-27T16:30:08.364Z,38.19
2023-04-27T16:32:38.127Z,38.30
2023-04-27T16:35:08.066Z,38.76
2023-04-27T16:37:36.461Z,39.60
2023-04-27T16:40:07.057Z,39.98
2023-04-27T16:42:35.685Z,39.97
2023-04-27T16:45:04.462Z,40.11
2023-04-27T16:47:32.776Z,40.49
2023-04-27T16:50:01.206Z,40.65
2023-04-27T16:52:29.490Z,40.63
2023-04-27T16:54:57.669Z,40.63
2023-04-27T16:57:26.053Z,40.58
2023-04-27T16:59:54.213Z,40.92
2023-04-27T17:02:25.649Z,41.10
2023-04-27T17:04:54.635Z,41.30
2023-04-27T17:07:23.095Z,41.63
2023-04-27T17:09:51.306Z,42.18
2023-04-27T17:12:19.581Z,42.66
2023-04-27T17:14:47.646Z,42.75
2023-04-27T17:17:15.720Z,43.23
2023-04-27T17:19:43.898Z,43.23
2023-04-27T17:22:13.496Z,43.56
2023-04-27T17:24:41.692Z,43.78
2023-04-27T17:27:10.745Z,44.44
2023-04-27T17:29:38.831Z,44.93
2023-04-27T17:32:07.110Z,45.24
2023-04-27T17:34:35.995Z,45.71
2023-04-27T17:37:04.375Z,45.98
2023-04-27T17:39:33.260Z,46.30
2023-04-27T17:42:01.442Z,47.03
2023-04-27T17:44:29.609Z,47.03
2023-04-27T17:46:57.698Z,48.36
2023-04-27T17:49:25.975Z,50.02
2023-04-27T17:51:54.127Z,50.59
2023-04-27T17:54:22.314Z,51.68
2023-04-27T17:56:50.368Z,53.25
2023-04-27T17:59:18.658Z,54.03
2023-04-27T18:01:47.561Z,55.11
2023-04-27T18:04:15.852Z,55.50
2023-04-27T18:06:44.084Z,55.93
2023-04-27T18:09:12.741Z,55.78
2023-04-27T18:11:41.450Z,56.58
2023-04-27T18:14:09.532Z,57.17
2023-04-27T18:16:37.809Z,56.16
2023-04-27T18:19:06.387Z,58.37
2023-04-27T18:21:34.556Z,59.29
2023-04-27T18:24:02.722Z,59.40
2023-04-27T18:26:31.408Z,59.31
2023-04-27T18:28:59.708Z,59.83
2023-04-27T18:31:28.699Z,60.07
2023-04-27T18:33:57.049Z,62.27
2023-04-27T18:36:27.687Z,66.11
2023-04-27T18:38:56.155Z,66.34
2023-04-27T18:41:24.950Z,65.20
2023-04-27T18:43:53.317Z,63.74
2023-04-27T18:46:21.564Z,62.72
2023-04-27T18:48:49.772Z,59.85
2023-04-27T18:51:17.836Z,56.74
2023-04-27T18:53:46.006Z,56.02
2023-04-27T18:56:15.001Z,56.44
2023-04-27T18:58:43.070Z,56.80
2023-04-27T19:01:22.372Z,57.53
2023-04-27T19:03:51.114Z,57.93
2023-04-27T19:06:21.128Z,58.99
2023-04-27T19:08:49.896Z,59.89
2023-04-27T19:11:22.299Z,60.48
2023-04-27T19:13:51.052Z,62.68
2023-04-27T19:16:19.277Z,66.10
2023-04-27T19:18:47.600Z,66.49
2023-04-27T19:21:15.870Z,65.80
2023-04-27T19:23:45.791Z,64.98
2023-04-27T19:26:14.338Z,64.58
2023-04-27T19:28:42.763Z,64.05
2023-04-27T19:31:11.060Z,62.85
2023-04-27T19:33:46.787Z,61.87
2023-04-27T19:36:15.252Z,59.76
2023-04-27T19:38:43.594Z,57.14
2023-04-27T19:41:14.261Z,56.87
2023-04-27T19:43:42.641Z,57.26
2023-04-27T19:46:11.054Z,57.76
2023-04-27T19:48:39.299Z,58.64
2023-04-27T19:51:11.147Z,59.63
2023-04-27T19:53:39.417Z,60.20
2023-04-27T19:56:07.696Z,62.85
2023-04-27T19:58:36.075Z,65.99
2023-04-27T20:01:04.244Z,66.03
2023-04-27T20:03:32.544Z,65.79
2023-04-27T20:06:01.139Z,64.91
2023-04-27T20:08:29.679Z,64.40
2023-04-27T20:10:57.859Z,63.67
2023-04-27T20:13:26.136Z,62.72
2023-04-27T20:15:54.365Z,61.93
2023-04-27T20:18:22.569Z,61.43
2023-04-27T20:20:50.845Z,59.51
2023-04-27T20:23:19.022Z,56.90
2023-04-27T20:25:47.191Z,56.79
2023-04-27T20:28:15.264Z,57.07
2023-04-27T20:30:43.356Z,57.82
2023-04-27T20:33:13.385Z,58.77
2023-04-27T20:35:42.760Z,59.86
2023-04-27T20:38:10.921Z,62.81
2023-04-27T20:40:39.707Z,66.42
2023-04-27T20:43:08.190Z,66.67
2023-04-27T20:45:36.705Z,66.54
2023-04-27T20:48:08.060Z,66.10
2023-04-27T20:50:37.215Z,65.31
2023-04-27T20:53:05.793Z,64.42
2023-04-27T20:55:34.562Z,63.31
2023-04-27T20:58:02.752Z,62.41
2023-04-27T21:00:30.920Z,61.95
2023-04-27T21:02:59.117Z,61.62
2023-04-27T21:05:27.370Z,61.07
2023-04-27T21:07:55.848Z,59.16
2023-04-27T21:10:24.134Z,56.65
2023-04-27T21:12:52.300Z,56.58
2023-04-27T21:15:20.677Z,57.11
2023-04-27T21:17:48.875Z,58.11
2023-04-27T21:20:17.335Z,58.99
2023-04-27T21:22:45.392Z,60.06
2023-04-27T21:25:13.465Z,62.93
2023-04-27T21:27:41.638Z,66.16
2023-04-27T21:30:10.630Z,67.14
2023-04-27T21:32:39.726Z,66.87
2023-04-27T21:35:08.840Z,66.34
2023-04-27T21:37:37.308Z,65.77
2023-04-27T21:40:06.592Z,65.07
2023-04-27T21:42:34.667Z,64.39
2023-04-27T21:45:04.559Z,63.51
2023-04-27T21:47:32.679Z,62.82
2023-04-27T21:50:00.925Z,62.17
2023-04-27T21:52:29.302Z,61.73
2023-04-27T21:54:57.489Z,61.19
2023-04-27T21:57:25.643Z,60.89
2023-04-27T21:59:53.936Z,58.82
2023-04-27T22:02:22.681Z,56.44
2023-04-27T22:04:51.881Z,56.36
2023-04-27T22:07:20.178Z,57.10
2023-04-27T22:09:48.243Z,58.01
2023-04-27T22:12:16.419Z,59.01
2023-04-27T22:14:44.587Z,61.27
2023-04-27T22:17:12.763Z,64.82
2023-04-27T22:19:41.653Z,64.49
2023-04-27T22:22:10.545Z,63.77
2023-04-27T22:24:38.711Z,63.95
2023-04-27T22:27:06.795Z,64.28
2023-04-27T22:29:35.056Z,64.35
2023-04-27T22:32:03.363Z,65.20
2023-04-27T22:34:32.326Z,65.39
2023-04-27T22:37:00.509Z,65.12
2023-04-27T22:39:28.770Z,65.17
2023-04-27T22:41:56.951Z,64.66
2023-04-27T22:44:25.113Z,64.50
2023-04-27T22:46:53.330Z,64.67
2023-04-27T22:49:21.562Z,64.59
2023-04-27T22:51:50.450Z,64.43
2023-04-27T22:54:18.811Z,63.64
2023-04-27T22:56:47.003Z,63.13
2023-04-27T22:59:15.274Z,62.56
2023-04-27T23:01:43.342Z,62.39
2023-04-27T23:04:11.567Z,62.47
2023-04-27T23:06:39.891Z,62.56
2023-04-27T23:09:08.378Z,62.62
2023-04-27T23:11:36.952Z,62.56
2023-04-27T23:14:05.129Z,62.47
2023-04-27T23:16:33.311Z,62.50
2023-04-27T23:19:01.878Z,62.75
2023-04-27T23:21:30.049Z,62.66
2023-04-27T23:23:58.222Z,62.53
2023-04-27T23:26:26.394Z,62.22
2023-04-27T23:28:54.703Z,62.04
2023-04-27T23:31:23.930Z,61.88
2023-04-27T23:33:52.448Z,61.76
2023-04-27T23:36:20.518Z,61.55
2023-04-27T23:38:48.694Z,61.59
2023-04-27T23:41:16.765Z,61.57
2023-04-27T23:43:45.138Z,61.46
2023-04-27T23:46:13.457Z,61.50
2023-04-27T23:48:42.720Z,61.43
2023-04-27T23:51:10.782Z,61.39
2023-04-27T23:53:38.951Z,61.37
2023-04-27T23:56:19.022Z,61.35
2023-04-27T23:58:47.178Z,61.54
